Terminal Aerodrome Forecast
Issued by NWS

Home | Current Version | Previous Version | Text Only | Print | Product List | Glossary On
Versions: 1 2 3 4 5 6 7 8 9 10 11 12 13 14 15 16 17 18 19 20
275
FTUS43 KDLH 231743
TAFBRD
TAF
KBRD 231743Z 2318/2418 23003KT P6SM SKC
     FM240100 19008KT P6SM SCT150 WS020/23035KT
     FM241300 24009KT P6SM OVC060 WS020/29040KT=

USA.gov is the U.S. government's official web portal to all federal, state and local government web resources and services.